sensor_id;sensor_type;location;lat;lon;timestamp;temperature;humidity
78731;SHT31;68055;51.978;5.658;2023-04-07T00:01:29;12.4;71.5
78731;SHT31;68055;51.978;5.658;2023-04-07T00:03:58;12.4;71.4
78731;SHT31;68055;51.978;5.658;2023-04-07T00:06:28;12.4;71.5
78731;SHT31;68055;51.978;5.658;2023-04-07T00:08:58;12.4;71.5
78731;SHT31;68055;51.978;5.658;2023-04-07T00:11:28;12.4;71.4
78731;SHT31;68055;51.978;5.658;2023-04-07T00:13:59;12.4;71.2
78731;SHT31;68055;51.978;5.658;2023-04-07T00:16:29;12.4;71.0
78731;SHT31;68055;51.978;5.658;2023-04-07T00:18:59;12.4;70.6
78731;SHT31;68055;51.978;5.658;2023-04-07T00:21:28;12.4;70.6
78731;SHT31;68055;51.978;5.658;2023-04-07T00:23:58;12.4;70.6
78731;SHT31;68055;51.978;5.658;2023-04-07T00:26:28;12.4;70.7
78731;SHT31;68055;51.978;5.658;2023-04-07T00:28:59;12.4;70.7
78731;SHT31;68055;51.978;5.658;2023-04-07T00:31:28;12.4;70.6
78731;SHT31;68055;51.978;5.658;2023-04-07T00:33:58;12.4;70.3
78731;SHT31;68055;51.978;5.658;2023-04-07T00:36:28;12.4;70.4
78731;SHT31;68055;51.978;5.658;2023-04-07T00:38:58;12.4;70.3
78731;SHT31;68055;51.978;5.658;2023-04-07T00:41:28;12.4;70.3
78731;SHT31;68055;51.978;5.658;2023-04-07T00:43:57;12.4;70.1
78731;SHT31;68055;51.978;5.658;2023-04-07T00:46:29;12.4;70.0
78731;SHT31;68055;51.978;5.658;2023-04-07T00:48:59;12.4;69.9
78731;SHT31;68055;51.978;5.658;2023-04-07T00:51:29;12.4;70.2
78731;SHT31;68055;51.978;5.658;2023-04-07T00:53:59;12.4;70.3
78731;SHT31;68055;51.978;5.658;2023-04-07T00:56:31;12.4;70.3
78731;SHT31;68055;51.978;5.658;2023-04-07T00:59:03;12.4;70.1
78731;SHT31;68055;51.978;5.658;2023-04-07T01:01:39;12.4;70.2
78731;SHT31;68055;51.978;5.658;2023-04-07T01:04:21;12.4;69.8
78731;SHT31;68055;51.978;5.658;2023-04-07T01:06:58;12.4;69.7
78731;SHT31;68055;51.978;5.658;2023-04-07T01:09:39;12.4;69.8
78731;SHT31;68055;51.978;5.658;2023-04-07T01:12:24;12.4;69.9
78731;SHT31;68055;51.978;5.658;2023-04-07T01:14:54;12.4;69.8
78731;SHT31;68055;51.978;5.658;2023-04-07T01:17:27;12.4;69.8
78731;SHT31;68055;51.978;5.658;2023-04-07T01:20:01;12.4;69.9
78731;SHT31;68055;51.978;5.658;2023-04-07T01:22:41;12.4;69.8
78731;SHT31;68055;51.978;5.658;2023-04-07T01:25:51;12.4;69.8
78731;SHT31;68055;51.978;5.658;2023-04-07T01:30:40;12.4;69.4
78731;SHT31;68055;51.978;5.658;2023-04-07T01:33:13;12.4;69.4
78731;SHT31;68055;51.978;5.658;2023-04-07T01:35:45;12.4;68.8
78731;SHT31;68055;51.978;5.658;2023-04-07T01:38:17;12.3;68.9
78731;SHT31;68055;51.978;5.658;2023-04-07T01:40:48;12.3;68.6
78731;SHT31;68055;51.978;5.658;2023-04-07T01:43:20;12.3;68.5
78731;SHT31;68055;51.978;5.658;2023-04-07T01:45:50;12.3;68.7
78731;SHT31;68055;51.978;5.658;2023-04-07T01:48:20;12.3;69.0
78731;SHT31;68055;51.978;5.658;2023-04-07T01:50:52;12.3;68.7
78731;SHT31;68055;51.978;5.658;2023-04-07T01:53:24;12.3;69.1
78731;SHT31;68055;51.978;5.658;2023-04-07T01:55:54;12.3;69.1
78731;SHT31;68055;51.978;5.658;2023-04-07T01:58:24;12.3;69.2
78731;SHT31;68055;51.978;5.658;2023-04-07T02:00:54;12.3;69.3
78731;SHT31;68055;51.978;5.658;2023-04-07T02:03:33;12.2;69.2
78731;SHT31;68055;51.978;5.658;2023-04-07T02:06:07;12.2;69.2
78731;SHT31;68055;51.978;5.658;2023-04-07T02:08:41;12.2;69.2
78731;SHT31;68055;51.978;5.658;2023-04-07T02:11:17;12.2;69.3
78731;SHT31;68055;51.978;5.658;2023-04-07T02:13:53;12.2;69.6
78731;SHT31;68055;51.978;5.658;2023-04-07T02:16:24;12.2;69.2
78731;SHT31;68055;51.978;5.658;2023-04-07T02:18:56;12.2;69.1
78731;SHT31;68055;51.978;5.658;2023-04-07T02:21:26;12.2;69.2
78731;SHT31;68055;51.978;5.658;2023-04-07T02:23:59;12.2;69.2
78731;SHT31;68055;51.978;5.658;2023-04-07T02:26:32;12.2;69.4
78731;SHT31;68055;51.978;5.658;2023-04-07T02:29:02;12.2;69.3
78731;SHT31;68055;51.978;5.658;2023-04-07T02:31:32;12.2;69.5
78731;SHT31;68055;51.978;5.658;2023-04-07T02:34:01;12.2;69.3
78731;SHT31;68055;51.978;5.658;2023-04-07T02:36:33;12.2;69.6
78731;SHT31;68055;51.978;5.658;2023-04-07T02:39:03;12.2;69.2
78731;SHT31;68055;51.978;5.658;2023-04-07T02:41:32;12.2;69.3
78731;SHT31;68055;51.978;5.658;2023-04-07T02:44:02;12.2;69.6
78731;SHT31;68055;51.978;5.658;2023-04-07T02:46:32;12.2;69.4
78731;SHT31;68055;51.978;5.658;2023-04-07T02:49:02;12.2;69.6
78731;SHT31;68055;51.978;5.658;2023-04-07T02:51:31;12.2;69.5
78731;SHT31;68055;51.978;5.658;2023-04-07T02:54:01;12.2;69.5
78731;SHT31;68055;51.978;5.658;2023-04-07T02:56:30;12.2;69.4
78731;SHT31;68055;51.978;5.658;2023-04-07T02:59:02;12.3;69.4
78731;SHT31;68055;51.978;5.658;2023-04-07T03:01:31;12.3;69.4
78731;SHT31;68055;51.978;5.658;2023-04-07T03:04:02;12.3;69.3
78731;SHT31;68055;51.978;5.658;2023-04-07T03:06:32;12.3;69.5
78731;SHT31;68055;51.978;5.658;2023-04-07T03:09:04;12.3;69.3
78731;SHT31;68055;51.978;5.658;2023-04-07T03:11:33;12.3;69.3
78731;SHT31;68055;51.978;5.658;2023-04-07T03:14:03;12.3;69.4
78731;SHT31;68055;51.978;5.658;2023-04-07T03:16:33;12.3;69.4
78731;SHT31;68055;51.978;5.658;2023-04-07T03:19:02;12.3;69.4
78731;SHT31;68055;51.978;5.658;2023-04-07T03:21:32;12.3;69.3
78731;SHT31;68055;51.978;5.658;2023-04-07T03:24:02;12.3;69.3
78731;SHT31;68055;51.978;5.658;2023-04-07T03:26:31;12.3;69.2
78731;SHT31;68055;51.978;5.658;2023-04-07T03:29:03;12.3;69.2
78731;SHT31;68055;51.978;5.658;2023-04-07T03:31:32;12.3;69.2
78731;SHT31;68055;51.978;5.658;2023-04-07T03:34:04;12.3;69.1
78731;SHT31;68055;51.978;5.658;2023-04-07T03:36:33;12.3;69.3
78731;SHT31;68055;51.978;5.658;2023-04-07T03:39:03;12.3;69.1
78731;SHT31;68055;51.978;5.658;2023-04-07T03:41:33;12.3;69.2
78731;SHT31;68055;51.978;5.658;2023-04-07T03:44:02;12.3;69.2
78731;SHT31;68055;51.978;5.658;2023-04-07T03:46:34;12.3;69.1
78731;SHT31;68055;51.978;5.658;2023-04-07T03:49:04;12.3;69.0
78731;SHT31;68055;51.978;5.658;2023-04-07T03:51:34;12.3;69.4
78731;SHT31;68055;51.978;5.658;2023-04-07T03:54:04;12.3;69.2
78731;SHT31;68055;51.978;5.658;2023-04-07T03:56:34;12.3;69.1
78731;SHT31;68055;51.978;5.658;2023-04-07T03:59:04;12.3;68.9
78731;SHT31;68055;51.978;5.658;2023-04-07T04:01:34;12.3;68.9
78731;SHT31;68055;51.978;5.658;2023-04-07T04:04:04;12.3;69.0
78731;SHT31;68055;51.978;5.658;2023-04-07T04:06:34;12.3;69.0
78731;SHT31;68055;51.978;5.658;2023-04-07T04:09:03;12.4;69.0
78731;SHT31;68055;51.978;5.658;2023-04-07T04:11:35;12.4;68.9
78731;SHT31;68055;51.978;5.658;2023-04-07T04:14:04;12.4;69.0
78731;SHT31;68055;51.978;5.658;2023-04-07T04:16:35;12.4;68.9
78731;SHT31;68055;51.978;5.658;2023-04-07T04:19:04;12.4;68.7
78731;SHT31;68055;51.978;5.658;2023-04-07T04:21:34;12.4;68.9
78731;SHT31;68055;51.978;5.658;2023-04-07T04:24:03;12.4;68.7
78731;SHT31;68055;51.978;5.658;2023-04-07T04:26:33;12.4;68.8
78731;SHT31;68055;51.978;5.658;2023-04-07T04:29:03;12.4;68.6
78731;SHT31;68055;51.978;5.658;2023-04-07T04:31:32;12.4;68.8
78731;SHT31;68055;51.978;5.658;2023-04-07T04:34:02;12.4;68.8
78731;SHT31;68055;51.978;5.658;2023-04-07T04:36:34;12.4;68.7
78731;SHT31;68055;51.978;5.658;2023-04-07T04:39:03;12.4;68.9
78731;SHT31;68055;51.978;5.658;2023-04-07T04:41:33;12.4;68.9
78731;SHT31;68055;51.978;5.658;2023-04-07T04:44:02;12.4;69.0
78731;SHT31;68055;51.978;5.658;2023-04-07T04:46:32;12.4;68.9
78731;SHT31;68055;51.978;5.658;2023-04-07T04:49:02;12.4;68.8
78731;SHT31;68055;51.978;5.658;2023-04-07T04:51:33;12.4;68.8
78731;SHT31;68055;51.978;5.658;2023-04-07T04:54:02;12.4;68.8
78731;SHT31;68055;51.978;5.658;2023-04-07T04:56:32;12.4;68.9
78731;SHT31;68055;51.978;5.658;2023-04-07T04:59:03;12.4;68.5
78731;SHT31;68055;51.978;5.658;2023-04-07T05:01:33;12.4;68.5
78731;SHT31;68055;51.978;5.658;2023-04-07T05:04:02;12.4;68.3
78731;SHT31;68055;51.978;5.658;2023-04-07T05:06:32;12.4;68.4
78731;SHT31;68055;51.978;5.658;2023-04-07T05:09:02;12.4;68.5
78731;SHT31;68055;51.978;5.658;2023-04-07T05:11:32;12.4;68.3
78731;SHT31;68055;51.978;5.658;2023-04-07T05:14:02;12.4;68.2
78731;SHT31;68055;51.978;5.658;2023-04-07T05:19:06;12.4;68.2
78731;SHT31;68055;51.978;5.658;2023-04-07T05:21:38;12.4;68.1
78731;SHT31;68055;51.978;5.658;2023-04-07T05:24:09;12.4;68.4
78731;SHT31;68055;51.978;5.658;2023-04-07T05:26:39;12.3;68.4
78731;SHT31;68055;51.978;5.658;2023-04-07T05:29:08;12.3;68.4
78731;SHT31;68055;51.978;5.658;2023-04-07T05:31:38;12.3;68.8
78731;SHT31;68055;51.978;5.658;2023-04-07T05:34:08;12.3;68.7
78731;SHT31;68055;51.978;5.658;2023-04-07T05:36:37;12.3;68.6
78731;SHT31;68055;51.978;5.658;2023-04-07T05:39:08;12.4;68.4
78731;SHT31;68055;51.978;5.658;2023-04-07T05:41:37;12.4;68.5
78731;SHT31;68055;51.978;5.658;2023-04-07T05:44:07;12.4;68.6
78731;SHT31;68055;51.978;5.658;2023-04-07T05:46:36;12.4;68.6
78731;SHT31;68055;51.978;5.658;2023-04-07T05:49:06;12.4;68.6
78731;SHT31;68055;51.978;5.658;2023-04-07T05:51:35;12.4;68.3
78731;SHT31;68055;51.978;5.658;2023-04-07T05:54:05;12.4;68.3
78731;SHT31;68055;51.978;5.658;2023-04-07T05:56:35;12.4;68.3
78731;SHT31;68055;51.978;5.658;2023-04-07T05:59:04;12.4;68.4
78731;SHT31;68055;51.978;5.658;2023-04-07T06:01:36;12.4;68.1
78731;SHT31;68055;51.978;5.658;2023-04-07T06:04:05;12.4;68.3
78731;SHT31;68055;51.978;5.658;2023-04-07T06:06:35;12.3;68.4
78731;SHT31;68055;51.978;5.658;2023-04-07T06:09:04;12.3;68.1
78731;SHT31;68055;51.978;5.658;2023-04-07T06:11:34;12.3;68.3
78731;SHT31;68055;51.978;5.658;2023-04-07T06:14:03;12.3;68.3
78731;SHT31;68055;51.978;5.658;2023-04-07T06:16:33;12.3;69.0
78731;SHT31;68055;51.978;5.658;2023-04-07T06:19:02;12.3;69.2
78731;SHT31;68055;51.978;5.658;2023-04-07T06:21:33;12.3;69.3
78731;SHT31;68055;51.978;5.658;2023-04-07T06:24:03;12.3;69.4
78731;SHT31;68055;51.978;5.658;2023-04-07T06:26:33;12.3;69.3
78731;SHT31;68055;51.978;5.658;2023-04-07T06:29:03;12.3;69.6
78731;SHT31;68055;51.978;5.658;2023-04-07T06:31:32;12.3;69.3
78731;SHT31;68055;51.978;5.658;2023-04-07T06:34:02;12.3;69.6
78731;SHT31;68055;51.978;5.658;2023-04-07T06:36:31;12.4;69.6
78731;SHT31;68055;51.978;5.658;2023-04-07T06:39:02;12.4;69.6
78731;SHT31;68055;51.978;5.658;2023-04-07T06:41:32;12.4;69.3
78731;SHT31;68055;51.978;5.658;2023-04-07T06:44:01;12.4;69.5
78731;SHT31;68055;51.978;5.658;2023-04-07T06:46:31;12.4;69.6
78731;SHT31;68055;51.978;5.658;2023-04-07T06:49:00;12.5;69.9
78731;SHT31;68055;51.978;5.658;2023-04-07T06:51:30;12.5;69.3
78731;SHT31;68055;51.978;5.658;2023-04-07T06:54:00;12.5;68.9
78731;SHT31;68055;51.978;5.658;2023-04-07T06:56:32;12.6;69.4
78731;SHT31;68055;51.978;5.658;2023-04-07T06:59:02;12.6;69.2
78731;SHT31;68055;51.978;5.658;2023-04-07T07:01:32;12.6;68.4
78731;SHT31;68055;51.978;5.658;2023-04-07T07:04:04;12.6;68.8
78731;SHT31;68055;51.978;5.658;2023-04-07T07:06:34;12.6;68.5
78731;SHT31;68055;51.978;5.658;2023-04-07T07:09:03;12.7;68.7
78731;SHT31;68055;51.978;5.658;2023-04-07T07:11:33;12.7;68.9
78731;SHT31;68055;51.978;5.658;2023-04-07T07:14:03;12.7;68.7
78731;SHT31;68055;51.978;5.658;2023-04-07T07:16:33;12.7;68.9
78731;SHT31;68055;51.978;5.658;2023-04-07T07:19:03;12.7;68.8
78731;SHT31;68055;51.978;5.658;2023-04-07T07:21:33;12.8;69.3
78731;SHT31;68055;51.978;5.658;2023-04-07T07:24:02;12.8;69.2
78731;SHT31;68055;51.978;5.658;2023-04-07T07:26:33;12.8;69.2
78731;SHT31;68055;51.978;5.658;2023-04-07T07:29:02;12.9;68.9
78731;SHT31;68055;51.978;5.658;2023-04-07T07:31:32;12.9;68.6
78731;SHT31;68055;51.978;5.658;2023-04-07T07:34:02;12.9;68.3
78731;SHT31;68055;51.978;5.658;2023-04-07T07:36:32;13.0;68.6
78731;SHT31;68055;51.978;5.658;2023-04-07T07:39:01;13.0;68.2
78731;SHT31;68055;51.978;5.658;2023-04-07T07:41:32;13.0;68.1
78731;SHT31;68055;51.978;5.658;2023-04-07T07:44:02;13.0;68.3
78731;SHT31;68055;51.978;5.658;2023-04-07T07:46:32;13.1;68.1
78731;SHT31;68055;51.978;5.658;2023-04-07T07:49:01;13.1;68.4
78731;SHT31;68055;51.978;5.658;2023-04-07T07:51:32;13.1;68.3
78731;SHT31;68055;51.978;5.658;2023-04-07T07:54:02;13.2;68.2
78731;SHT31;68055;51.978;5.658;2023-04-07T07:56:32;13.2;67.3
78731;SHT31;68055;51.978;5.658;2023-04-07T07:59:03;13.2;67.2
78731;SHT31;68055;51.978;5.658;2023-04-07T08:01:32;13.2;66.9
78731;SHT31;68055;51.978;5.658;2023-04-07T08:04:02;13.3;66.8
78731;SHT31;68055;51.978;5.658;2023-04-07T08:06:32;13.3;67.1
78731;SHT31;68055;51.978;5.658;2023-04-07T08:09:03;13.3;67.3
78731;SHT31;68055;51.978;5.658;2023-04-07T08:11:32;13.3;67.2
78731;SHT31;68055;51.978;5.658;2023-04-07T08:14:02;13.3;66.8
78731;SHT31;68055;51.978;5.658;2023-04-07T08:16:32;13.4;66.9
78731;SHT31;68055;51.978;5.658;2023-04-07T08:19:01;13.4;66.3
78731;SHT31;68055;51.978;5.658;2023-04-07T08:21:31;13.4;65.8
78731;SHT31;68055;51.978;5.658;2023-04-07T08:24:01;13.4;65.7
78731;SHT31;68055;51.978;5.658;2023-04-07T08:26:31;13.4;65.3
78731;SHT31;68055;51.978;5.658;2023-04-07T08:29:02;13.4;65.3
78731;SHT31;68055;51.978;5.658;2023-04-07T08:31:31;13.4;65.4
78731;SHT31;68055;51.978;5.658;2023-04-07T08:34:01;13.5;65.8
78731;SHT31;68055;51.978;5.658;2023-04-07T08:36:31;13.5;65.6
78731;SHT31;68055;51.978;5.658;2023-04-07T08:39:01;13.5;65.2
78731;SHT31;68055;51.978;5.658;2023-04-07T08:41:36;13.5;65.1
78731;SHT31;68055;51.978;5.658;2023-04-07T08:44:07;13.5;65.7
78731;SHT31;68055;51.978;5.658;2023-04-07T08:46:38;13.5;65.6
78731;SHT31;68055;51.978;5.658;2023-04-07T08:49:10;13.5;65.7
78731;SHT31;68055;51.978;5.658;2023-04-07T08:51:45;13.5;65.8
78731;SHT31;68055;51.978;5.658;2023-04-07T08:54:17;13.6;65.0
78731;SHT31;68055;51.978;5.658;2023-04-07T08:56:49;13.6;65.0
78731;SHT31;68055;51.978;5.658;2023-04-07T08:59:18;13.6;65.0
78731;SHT31;68055;51.978;5.658;2023-04-07T09:01:53;13.6;65.4
78731;SHT31;68055;51.978;5.658;2023-04-07T09:04:23;13.7;64.7
78731;SHT31;68055;51.978;5.658;2023-04-07T09:06:55;13.7;65.1
78731;SHT31;68055;51.978;5.658;2023-04-07T09:09:28;13.8;65.2
78731;SHT31;68055;51.978;5.658;2023-04-07T09:11:58;13.8;64.4
78731;SHT31;68055;51.978;5.658;2023-04-07T09:14:28;13.8;63.5
78731;SHT31;68055;51.978;5.658;2023-04-07T09:16:59;13.9;62.9
78731;SHT31;68055;51.978;5.658;2023-04-07T09:19:29;13.9;64.2
78731;SHT31;68055;51.978;5.658;2023-04-07T09:21:59;13.9;63.2
78731;SHT31;68055;51.978;5.658;2023-04-07T09:24:30;13.9;63.1
78731;SHT31;68055;51.978;5.658;2023-04-07T09:27:14;13.9;62.9
78731;SHT31;68055;51.978;5.658;2023-04-07T09:29:46;13.9;62.7
78731;SHT31;68055;51.978;5.658;2023-04-07T09:32:35;13.9;61.9
78731;SHT31;68055;51.978;5.658;2023-04-07T09:35:09;13.9;62.2
78731;SHT31;68055;51.978;5.658;2023-04-07T09:37:38;14.0;61.0
78731;SHT31;68055;51.978;5.658;2023-04-07T09:40:10;14.0;61.0
78731;SHT31;68055;51.978;5.658;2023-04-07T09:42:46;14.0;60.9
78731;SHT31;68055;51.978;5.658;2023-04-07T09:45:22;14.0;62.3
78731;SHT31;68055;51.978;5.658;2023-04-07T09:47:53;14.0;61.9
78731;SHT31;68055;51.978;5.658;2023-04-07T09:50:33;14.0;61.9
78731;SHT31;68055;51.978;5.658;2023-04-07T09:53:05;14.1;61.7
78731;SHT31;68055;51.978;5.658;2023-04-07T09:55:35;14.1;60.5
78731;SHT31;68055;51.978;5.658;2023-04-07T09:58:07;14.1;60.7
78731;SHT31;68055;51.978;5.658;2023-04-07T10:00:37;14.1;59.9
78731;SHT31;68055;51.978;5.658;2023-04-07T10:03:07;14.1;60.8
78731;SHT31;68055;51.978;5.658;2023-04-07T10:05:37;14.1;60.4
78731;SHT31;68055;51.978;5.658;2023-04-07T10:08:09;14.1;60.3
78731;SHT31;68055;51.978;5.658;2023-04-07T10:10:41;14.1;60.7
78731;SHT31;68055;51.978;5.658;2023-04-07T10:13:12;14.1;61.3
78731;SHT31;68055;51.978;5.658;2023-04-07T10:15:42;14.1;61.4
78731;SHT31;68055;51.978;5.658;2023-04-07T10:18:13;14.1;61.3
78731;SHT31;68055;51.978;5.658;2023-04-07T10:20:49;14.1;61.3
78731;SHT31;68055;51.978;5.658;2023-04-07T10:23:21;14.1;62.1
78731;SHT31;68055;51.978;5.658;2023-04-07T10:25:54;14.2;61.0
78731;SHT31;68055;51.978;5.658;2023-04-07T10:28:26;14.2;60.5
78731;SHT31;68055;51.978;5.658;2023-04-07T10:30:58;14.2;60.3
78731;SHT31;68055;51.978;5.658;2023-04-07T10:33:48;14.2;61.2
78731;SHT31;68055;51.978;5.658;2023-04-07T10:36:19;14.2;61.4
78731;SHT31;68055;51.978;5.658;2023-04-07T10:39:20;14.2;61.2
78731;SHT31;68055;51.978;5.658;2023-04-07T10:41:52;14.2;60.8
78731;SHT31;68055;51.978;5.658;2023-04-07T10:47:27;14.2;60.2
78731;SHT31;68055;51.978;5.658;2023-04-07T10:50:16;14.2;60.9
78731;SHT31;68055;51.978;5.658;2023-04-07T10:52:48;14.2;61.8
78731;SHT31;68055;51.978;5.658;2023-04-07T10:55:32;14.3;61.7
78731;SHT31;68055;51.978;5.658;2023-04-07T10:58:19;14.3;61.1
78731;SHT31;68055;51.978;5.658;2023-04-07T11:01:18;14.3;61.0
78731;SHT31;68055;51.978;5.658;2023-04-07T11:03:55;14.3;60.9
78731;SHT31;68055;51.978;5.658;2023-04-07T11:06:26;14.4;60.2
78731;SHT31;68055;51.978;5.658;2023-04-07T11:08:56;14.4;59.5
78731;SHT31;68055;51.978;5.658;2023-04-07T11:11:39;14.4;58.8
78731;SHT31;68055;51.978;5.658;2023-04-07T11:14:09;14.4;59.3
78731;SHT31;68055;51.978;5.658;2023-04-07T11:16:40;14.4;60.1
78731;SHT31;68055;51.978;5.658;2023-04-07T11:19:11;14.4;60.7
78731;SHT31;68055;51.978;5.658;2023-04-07T11:21:41;14.4;60.3
78731;SHT31;68055;51.978;5.658;2023-04-07T11:24:33;14.5;59.1
78731;SHT31;68055;51.978;5.658;2023-04-07T11:27:04;14.5;59.2
78731;SHT31;68055;51.978;5.658;2023-04-07T11:29:34;14.5;59.6
78731;SHT31;68055;51.978;5.658;2023-04-07T11:32:05;14.5;60.0
78731;SHT31;68055;51.978;5.658;2023-04-07T11:34:35;14.5;59.7
78731;SHT31;68055;51.978;5.658;2023-04-07T11:37:20;14.5;58.9
78731;SHT31;68055;51.978;5.658;2023-04-07T11:39:55;14.5;59.0
78731;SHT31;68055;51.978;5.658;2023-04-07T11:42:35;14.5;59.3
78731;SHT31;68055;51.978;5.658;2023-04-07T11:45:16;14.6;59.2
78731;SHT31;68055;51.978;5.658;2023-04-07T11:47:49;14.6;59.0
78731;SHT31;68055;51.978;5.658;2023-04-07T11:50:41;14.6;59.4
78731;SHT31;68055;51.978;5.658;2023-04-07T11:53:11;14.6;58.6
78731;SHT31;68055;51.978;5.658;2023-04-07T11:55:40;14.7;59.3
78731;SHT31;68055;51.978;5.658;2023-04-07T11:58:10;14.7;58.4
78731;SHT31;68055;51.978;5.658;2023-04-07T12:00:54;14.7;57.9
78731;SHT31;68055;51.978;5.658;2023-04-07T12:03:24;14.8;57.0
78731;SHT31;68055;51.978;5.658;2023-04-07T12:05:54;14.8;57.1
78731;SHT31;68055;51.978;5.658;2023-04-07T12:08:40;14.8;57.1
78731;SHT31;68055;51.978;5.658;2023-04-07T12:11:10;14.8;57.3
78731;SHT31;68055;51.978;5.658;2023-04-07T12:13:41;14.8;57.6
78731;SHT31;68055;51.978;5.658;2023-04-07T12:16:10;14.8;58.0
78731;SHT31;68055;51.978;5.658;2023-04-07T12:18:40;14.8;57.9
78731;SHT31;68055;51.978;5.658;2023-04-07T12:21:10;14.8;57.0
78731;SHT31;68055;51.978;5.658;2023-04-07T12:23:39;14.8;57.7
78731;SHT31;68055;51.978;5.658;2023-04-07T12:26:09;14.8;58.4
78731;SHT31;68055;51.978;5.658;2023-04-07T12:28:39;14.8;58.1
78731;SHT31;68055;51.978;5.658;2023-04-07T12:31:11;14.8;56.7
78731;SHT31;68055;51.978;5.658;2023-04-07T12:33:41;14.8;57.9
78731;SHT31;68055;51.978;5.658;2023-04-07T12:36:12;14.8;56.8
78731;SHT31;68055;51.978;5.658;2023-04-07T12:38:42;14.8;56.4
78731;SHT31;68055;51.978;5.658;2023-04-07T12:41:12;14.8;56.9
78731;SHT31;68055;51.978;5.658;2023-04-07T12:43:42;14.8;57.0
78731;SHT31;68055;51.978;5.658;2023-04-07T12:46:11;14.8;56.2
78731;SHT31;68055;51.978;5.658;2023-04-07T12:48:41;14.8;57.2
78731;SHT31;68055;51.978;5.658;2023-04-07T12:51:11;14.8;56.9
78731;SHT31;68055;51.978;5.658;2023-04-07T12:53:40;14.8;56.8
78731;SHT31;68055;51.978;5.658;2023-04-07T12:56:11;14.8;57.4
78731;SHT31;68055;51.978;5.658;2023-04-07T12:58:41;14.8;56.5
78731;SHT31;68055;51.978;5.658;2023-04-07T13:01:10;14.8;56.5
78731;SHT31;68055;51.978;5.658;2023-04-07T13:03:40;14.8;56.5
78731;SHT31;68055;51.978;5.658;2023-04-07T13:06:12;14.8;57.3
78731;SHT31;68055;51.978;5.658;2023-04-07T13:08:42;14.8;57.0
78731;SHT31;68055;51.978;5.658;2023-04-07T13:11:12;14.8;57.6
78731;SHT31;68055;51.978;5.658;2023-04-07T13:13:41;14.8;57.3
78731;SHT31;68055;51.978;5.658;2023-04-07T13:16:11;14.9;57.4
78731;SHT31;68055;51.978;5.658;2023-04-07T13:18:41;14.9;58.4
78731;SHT31;68055;51.978;5.658;2023-04-07T13:21:11;14.9;57.3
78731;SHT31;68055;51.978;5.658;2023-04-07T13:23:41;14.9;57.1
78731;SHT31;68055;51.978;5.658;2023-04-07T13:26:10;14.9;57.3
78731;SHT31;68055;51.978;5.658;2023-04-07T13:28:40;15.0;56.4
78731;SHT31;68055;51.978;5.658;2023-04-07T13:31:12;15.0;55.9
78731;SHT31;68055;51.978;5.658;2023-04-07T13:33:42;15.0;55.2
78731;SHT31;68055;51.978;5.658;2023-04-07T13:36:12;14.9;57.8
78731;SHT31;68055;51.978;5.658;2023-04-07T13:38:41;14.9;56.3
78731;SHT31;68055;51.978;5.658;2023-04-07T13:41:11;14.9;56.5
78731;SHT31;68055;51.978;5.658;2023-04-07T13:43:41;14.9;56.8
78731;SHT31;68055;51.978;5.658;2023-04-07T13:46:14;15.0;56.6
78731;SHT31;68055;51.978;5.658;2023-04-07T13:48:45;15.0;56.8
78731;SHT31;68055;51.978;5.658;2023-04-07T13:51:18;15.0;56.2
78731;SHT31;68055;51.978;5.658;2023-04-07T13:53:48;15.0;56.5
78731;SHT31;68055;51.978;5.658;2023-04-07T13:56:18;15.1;57.8
78731;SHT31;68055;51.978;5.658;2023-04-07T13:58:48;15.1;57.2
78731;SHT31;68055;51.978;5.658;2023-04-07T14:01:19;15.1;56.0
78731;SHT31;68055;51.978;5.658;2023-04-07T14:03:48;15.2;56.5
78731;SHT31;68055;51.978;5.658;2023-04-07T14:06:18;15.3;57.0
78731;SHT31;68055;51.978;5.658;2023-04-07T14:08:49;15.3;55.0
78731;SHT31;68055;51.978;5.658;2023-04-07T14:11:19;15.4;55.6
78731;SHT31;68055;51.978;5.658;2023-04-07T14:13:51;15.4;55.0
78731;SHT31;68055;51.978;5.658;2023-04-07T14:16:21;15.4;54.9
78731;SHT31;68055;51.978;5.658;2023-04-07T14:18:50;15.4;56.0
78731;SHT31;68055;51.978;5.658;2023-04-07T14:21:20;15.4;55.4
78731;SHT31;68055;51.978;5.658;2023-04-07T14:23:50;15.4;54.6
78731;SHT31;68055;51.978;5.658;2023-04-07T14:26:20;15.4;54.3
78731;SHT31;68055;51.978;5.658;2023-04-07T14:28:50;15.4;54.9
78731;SHT31;68055;51.978;5.658;2023-04-07T14:31:20;15.5;55.0
78731;SHT31;68055;51.978;5.658;2023-04-07T14:33:49;15.5;54.1
78731;SHT31;68055;51.978;5.658;2023-04-07T14:36:19;15.5;55.3
78731;SHT31;68055;51.978;5.658;2023-04-07T14:38:50;15.5;55.4
78731;SHT31;68055;51.978;5.658;2023-04-07T14:41:20;15.5;55.6
78731;SHT31;68055;51.978;5.658;2023-04-07T14:43:50;15.5;55.0
78731;SHT31;68055;51.978;5.658;2023-04-07T14:46:22;15.5;55.0
78731;SHT31;68055;51.978;5.658;2023-04-07T14:48:53;15.5;55.3
78731;SHT31;68055;51.978;5.658;2023-04-07T14:51:23;15.5;55.0
78731;SHT31;68055;51.978;5.658;2023-04-07T14:53:53;15.5;55.2
78731;SHT31;68055;51.978;5.658;2023-04-07T14:56:24;15.5;55.0
78731;SHT31;68055;51.978;5.658;2023-04-07T14:58:54;15.5;54.8
78731;SHT31;68055;51.978;5.658;2023-04-07T15:01:23;15.5;54.3
78731;SHT31;68055;51.978;5.658;2023-04-07T15:03:53;15.4;54.9
78731;SHT31;68055;51.978;5.658;2023-04-07T15:06:25;15.4;55.0
78731;SHT31;68055;51.978;5.658;2023-04-07T15:08:56;15.4;54.8
78731;SHT31;68055;51.978;5.658;2023-04-07T15:11:26;15.4;55.0
78731;SHT31;68055;51.978;5.658;2023-04-07T15:13:56;15.4;54.5
78731;SHT31;68055;51.978;5.658;2023-04-07T15:16:27;15.3;54.4
78731;SHT31;68055;51.978;5.658;2023-04-07T15:18:56;15.3;54.4
78731;SHT31;68055;51.978;5.658;2023-04-07T15:21:26;15.3;54.8
78731;SHT31;68055;51.978;5.658;2023-04-07T15:23:55;15.3;54.6
78731;SHT31;68055;51.978;5.658;2023-04-07T15:26:25;15.2;55.8
78731;SHT31;68055;51.978;5.658;2023-04-07T15:28:55;15.2;54.8
78731;SHT31;68055;51.978;5.658;2023-04-07T15:31:24;15.2;55.2
78731;SHT31;68055;51.978;5.658;2023-04-07T15:33:55;15.2;54.6
78731;SHT31;68055;51.978;5.658;2023-04-07T15:36:26;15.1;55.5
78731;SHT31;68055;51.978;5.658;2023-04-07T15:38:56;15.1;55.5
78731;SHT31;68055;51.978;5.658;2023-04-07T15:41:28;15.1;55.7
78731;SHT31;68055;51.978;5.658;2023-04-07T15:43:59;15.1;55.9
78731;SHT31;68055;51.978;5.658;2023-04-07T15:46:30;15.0;56.2
78731;SHT31;68055;51.978;5.658;2023-04-07T15:49:00;15.0;56.8
78731;SHT31;68055;51.978;5.658;2023-04-07T15:51:30;15.1;57.2
78731;SHT31;68055;51.978;5.658;2023-04-07T15:54:02;15.1;56.7
78731;SHT31;68055;51.978;5.658;2023-04-07T15:56:32;15.1;56.4
78731;SHT31;68055;51.978;5.658;2023-04-07T15:59:02;15.1;56.3
78731;SHT31;68055;51.978;5.658;2023-04-07T16:01:32;15.1;56.3
78731;SHT31;68055;51.978;5.658;2023-04-07T16:04:03;15.1;55.8
78731;SHT31;68055;51.978;5.658;2023-04-07T16:06:32;15.1;55.4
78731;SHT31;68055;51.978;5.658;2023-04-07T16:09:02;15.1;56.0
78731;SHT31;68055;51.978;5.658;2023-04-07T16:11:32;15.1;55.9
78731;SHT31;68055;51.978;5.658;2023-04-07T16:14:02;15.1;55.9
78731;SHT31;68055;51.978;5.658;2023-04-07T16:16:32;15.1;56.0
78731;SHT31;68055;51.978;5.658;2023-04-07T16:19:03;15.1;55.9
78731;SHT31;68055;51.978;5.658;2023-04-07T16:21:32;15.1;55.6
78731;SHT31;68055;51.978;5.658;2023-04-07T16:24:02;15.1;55.5
78731;SHT31;68055;51.978;5.658;2023-04-07T16:26:32;15.1;55.6
78731;SHT31;68055;51.978;5.658;2023-04-07T16:29:02;15.0;56.3
78731;SHT31;68055;51.978;5.658;2023-04-07T16:31:32;15.0;55.8
78731;SHT31;68055;51.978;5.658;2023-04-07T16:34:02;15.0;55.9
78731;SHT31;68055;51.978;5.658;2023-04-07T16:36:31;14.9;56.0